createdAt,value
2019-05-16T00:00:09.510Z,0.00
2019-05-16T00:01:09.561Z,0.00
2019-05-16T00:02:09.471Z,0.00
2019-05-16T00:03:09.543Z,0.00
2019-05-16T00:04:09.450Z,0.00
2019-05-16T00:05:09.434Z,0.00
2019-05-16T00:06:09.430Z,0.00
2019-05-16T00:07:09.425Z,0.00
2019-05-16T00:08:12.583Z,0.00
2019-05-16T00:09:09.415Z,0.00
2019-05-16T00:10:09.391Z,0.00
2019-05-16T00:11:09.374Z,0.00
2019-05-16T00:12:09.358Z,0.00
2019-05-16T00:13:09.358Z,0.00
2019-05-16T00:14:09.417Z,0.00
2019-05-16T00:15:09.405Z,0.00
2019-05-16T00:16:09.351Z,0.00
2019-05-16T00:17:09.308Z,0.00
2019-05-16T00:18:09.292Z,0.00
2019-05-16T00:19:09.312Z,0.00
2019-05-16T00:20:09.631Z,0.00
2019-05-16T00:21:09.259Z,0.00
2019-05-16T00:22:09.252Z,0.00
2019-05-16T00:23:09.238Z,0.00
2019-05-16T00:24:09.228Z,0.00
2019-05-16T00:25:09.298Z,0.00
2019-05-16T00:26:09.211Z,0.00
2019-05-16T00:27:09.195Z,0.00
2019-05-16T00:28:09.185Z,0.00
2019-05-16T00:29:09.172Z,0.00
2019-05-16T00:30:09.320Z,0.00
2019-05-16T00:31:09.154Z,0.00
2019-05-16T00:32:09.152Z,0.00
2019-05-16T00:33:09.133Z,0.00
2019-05-16T00:34:09.543Z,0.00
2019-05-16T00:35:09.517Z,0.00
2019-05-16T00:36:09.405Z,0.00
2019-05-16T00:37:09.088Z,0.00
2019-05-16T00:38:09.075Z,0.00
2019-05-16T00:39:09.067Z,0.00
2019-05-16T00:40:09.066Z,0.00
2019-05-16T00:41:09.063Z,0.00
2019-05-16T00:42:09.050Z,0.00
2019-05-16T00:43:09.024Z,0.00
2019-05-16T00:44:09.005Z,0.00
2019-05-16T00:45:09.471Z,0.00
2019-05-16T00:46:08.989Z,0.00
2019-05-16T00:47:08.971Z,0.00
2019-05-16T00:48:09.172Z,0.00
2019-05-16T00:49:08.950Z,0.00
2019-05-16T00:50:09.136Z,0.00
2019-05-16T00:51:09.036Z,0.00
2019-05-16T00:52:08.916Z,0.00
2019-05-16T00:53:09.237Z,0.00
2019-05-16T00:54:08.900Z,0.00
2019-05-16T00:55:08.904Z,0.00
2019-05-16T00:56:08.953Z,0.00
2019-05-16T00:57:08.863Z,0.00
2019-05-16T00:58:08.980Z,0.00
2019-05-16T00:59:08.842Z,0.00
2019-05-16T01:00:08.830Z,0.00
2019-05-16T01:01:08.826Z,0.00
2019-05-16T01:02:09.109Z,0.00
2019-05-16T01:03:08.807Z,0.00
2019-05-16T01:04:08.783Z,0.00
2019-05-16T01:05:08.872Z,0.00
2019-05-16T01:06:18.421Z,0.00
2019-05-16T01:07:09.780Z,0.00
2019-05-16T01:08:08.740Z,0.00
2019-05-16T01:09:08.870Z,0.00
2019-05-16T01:10:09.230Z,0.00
2019-05-16T01:11:08.711Z,0.00
2019-05-16T01:12:08.761Z,0.00
2019-05-16T01:13:08.692Z,0.00
2019-05-16T01:14:08.677Z,0.00
2019-05-16T01:15:08.662Z,0.00
2019-05-16T01:16:08.835Z,0.00
2019-05-16T01:17:08.777Z,0.00
2019-05-16T01:18:08.637Z,0.00
2019-05-16T01:19:08.680Z,0.00
2019-05-16T01:20:08.841Z,0.00
2019-05-16T01:21:08.604Z,0.00
2019-05-16T01:22:08.667Z,0.00
2019-05-16T01:23:08.973Z,0.00
2019-05-16T01:24:08.659Z,0.00
2019-05-16T01:25:09.397Z,0.00
2019-05-16T01:26:08.542Z,0.00
2019-05-16T01:27:08.533Z,0.00
2019-05-16T01:28:08.950Z,0.00
2019-05-16T01:29:11.568Z,0.00
2019-05-16T01:30:09.124Z,0.00
2019-05-16T01:31:08.752Z,0.00
2019-05-16T01:32:08.544Z,0.00
2019-05-16T01:33:09.004Z,0.00
2019-05-16T01:34:08.455Z,0.00
2019-05-16T01:35:08.634Z,0.00
2019-05-16T01:36:09.080Z,0.00
2019-05-16T01:37:08.436Z,0.00
2019-05-16T01:38:08.758Z,0.00
2019-05-16T01:39:08.502Z,0.00
2019-05-16T01:40:08.487Z,0.00
2019-05-16T01:41:08.834Z,0.00
2019-05-16T01:42:08.364Z,0.00
2019-05-16T01:43:08.676Z,0.00
2019-05-16T01:44:08.389Z,0.00
2019-05-16T01:45:08.426Z,0.00
2019-05-16T01:46:08.525Z,0.00
2019-05-16T01:47:09.036Z,0.00
2019-05-16T01:48:08.452Z,0.00
2019-05-16T01:49:08.385Z,0.00
2019-05-16T01:50:08.810Z,0.00
2019-05-16T01:51:08.271Z,0.00
2019-05-16T01:52:08.900Z,0.00
2019-05-16T01:53:08.763Z,0.00
2019-05-16T01:54:08.780Z,0.00
2019-05-16T01:55:08.625Z,0.00
2019-05-16T01:56:08.633Z,0.00
2019-05-16T01:57:08.311Z,0.00
2019-05-16T01:58:08.219Z,0.00
2019-05-16T01:59:08.884Z,0.00
2019-05-16T02:00:08.617Z,0.00
2019-05-16T02:01:13.135Z,0.00
2019-05-16T02:02:09.153Z,0.00
2019-05-16T02:03:08.396Z,0.00
2019-05-16T02:04:11.882Z,0.00
2019-05-16T02:05:08.514Z,0.00
2019-05-16T02:06:08.828Z,0.00
2019-05-16T02:07:08.692Z,0.00
2019-05-16T02:08:08.860Z,0.00
2019-05-16T02:09:11.596Z,0.00
2019-05-16T02:10:08.531Z,0.00
2019-05-16T02:11:08.602Z,0.00
2019-05-16T02:12:10.709Z,0.00
2019-05-16T02:13:08.606Z,0.00
2019-05-16T02:14:09.498Z,0.00
2019-05-16T02:15:08.157Z,0.00
2019-05-16T02:16:08.353Z,0.00
2019-05-16T02:17:10.905Z,0.00
2019-05-16T02:18:08.445Z,0.00
2019-05-16T02:19:08.267Z,0.00
2019-05-16T02:20:08.767Z,0.00
2019-05-16T02:21:08.055Z,0.00
2019-05-16T02:22:08.888Z,0.00
2019-05-16T02:23:08.166Z,0.00
2019-05-16T02:24:08.892Z,0.00
2019-05-16T02:25:07.898Z,0.00
2019-05-16T02:26:08.135Z,0.00
2019-05-16T02:27:09.518Z,0.00
2019-05-16T02:28:08.405Z,0.00
2019-05-16T02:29:10.282Z,0.00
2019-05-16T02:30:12.553Z,0.00
2019-05-16T02:31:14.702Z,0.00
2019-05-16T02:32:11.614Z,0.00
2019-05-16T02:33:07.800Z,0.00
2019-05-16T02:34:11.509Z,0.00
2019-05-16T02:35:11.218Z,0.00
2019-05-16T02:36:10.722Z,0.00
2019-05-16T02:37:20.141Z,0.00
2019-05-16T02:38:11.297Z,0.00
2019-05-16T02:39:10.925Z,0.00
2019-05-16T02:40:07.743Z,0.00
2019-05-16T02:41:10.516Z,0.00
2019-05-16T02:42:07.750Z,0.00
2019-05-16T02:43:07.788Z,0.00
2019-05-16T02:44:07.689Z,0.00
2019-05-16T02:45:10.700Z,0.00
2019-05-16T02:46:07.657Z,0.00
2019-05-16T02:47:10.596Z,0.00
2019-05-16T02:48:10.805Z,0.00
2019-05-16T02:49:07.624Z,0.00
2019-05-16T02:50:07.617Z,4.00
2019-05-16T02:51:10.844Z,4.00
2019-05-16T02:52:10.569Z,4.00
2019-05-16T02:53:07.625Z,4.00
2019-05-16T02:54:10.744Z,4.00
2019-05-16T02:55:07.556Z,4.00
2019-05-16T02:56:07.547Z,4.00
2019-05-16T02:57:10.878Z,4.00
2019-05-16T02:58:07.528Z,4.00
2019-05-16T02:59:07.613Z,0.00
2019-05-16T03:00:07.516Z,4.00
2019-05-16T03:01:10.780Z,0.00
2019-05-16T03:02:07.481Z,4.00
2019-05-16T03:03:07.537Z,4.00
2019-05-16T03:04:10.776Z,4.00
2019-05-16T03:05:07.530Z,4.00
2019-05-16T03:06:10.908Z,8.00
2019-05-16T03:07:07.432Z,8.00
2019-05-16T03:08:07.417Z,4.00
2019-05-16T03:09:10.922Z,8.00
2019-05-16T03:10:07.401Z,12.00
2019-05-16T03:11:07.381Z,8.00
2019-05-16T03:12:10.547Z,8.00
2019-05-16T03:13:07.365Z,8.00
2019-05-16T03:14:07.352Z,16.00
2019-05-16T03:15:10.718Z,16.00
2019-05-16T03:16:07.326Z,20.00
2019-05-16T03:17:07.319Z,28.00
2019-05-16T03:18:07.352Z,32.00
2019-05-16T03:19:07.297Z,32.00
2019-05-16T03:20:10.561Z,40.00
2019-05-16T03:21:07.375Z,56.00
2019-05-16T03:22:07.259Z,68.00
2019-05-16T03:23:07.252Z,72.00
2019-05-16T03:24:07.245Z,72.00
2019-05-16T03:25:07.234Z,80.00
2019-05-16T03:26:07.269Z,96.00
2019-05-16T03:27:07.247Z,96.00
2019-05-16T03:28:07.194Z,96.00
2019-05-16T03:29:07.211Z,108.00
2019-05-16T03:30:07.170Z,100.00
2019-05-16T03:31:07.175Z,112.00
2019-05-16T03:32:07.241Z,112.00
2019-05-16T03:33:07.220Z,120.00
2019-05-16T03:34:08.048Z,132.00
2019-05-16T03:35:07.202Z,120.00
2019-05-16T03:36:07.111Z,132.00
2019-05-16T03:37:07.110Z,124.00
2019-05-16T03:38:07.115Z,112.00
2019-05-16T03:39:07.076Z,120.00
2019-05-16T03:40:07.143Z,112.00
2019-05-16T03:41:07.047Z,120.00
2019-05-16T03:42:07.042Z,140.00
2019-05-16T03:43:07.056Z,156.00
2019-05-16T03:44:07.097Z,148.00
2019-05-16T03:45:07.006Z,192.00
2019-05-16T03:46:06.999Z,216.00
2019-05-16T03:47:06.984Z,232.00
2019-05-16T03:48:06.993Z,284.00
2019-05-16T03:49:06.959Z,368.00
2019-05-16T03:50:06.981Z,344.00
2019-05-16T03:51:06.937Z,328.00
2019-05-16T03:52:07.007Z,328.00
2019-05-16T03:53:06.914Z,284.00
2019-05-16T03:54:06.913Z,296.00
2019-05-16T03:55:06.980Z,276.00
2019-05-16T03:56:07.034Z,240.00
2019-05-16T03:57:06.873Z,220.00
2019-05-16T03:58:06.864Z,216.00
2019-05-16T03:59:06.870Z,220.00
2019-05-16T04:00:06.953Z,196.00
2019-05-16T04:01:06.832Z,176.00
2019-05-16T04:02:06.821Z,144.00
2019-05-16T04:03:06.816Z,164.00
2019-05-16T04:04:06.793Z,160.00
2019-05-16T04:05:06.782Z,172.00
2019-05-16T04:06:06.863Z,156.00
2019-05-16T04:07:06.841Z,200.00
2019-05-16T04:08:18.533Z,180.00
2019-05-16T04:09:07.743Z,228.00
2019-05-16T04:10:06.729Z,244.00
2019-05-16T04:11:06.731Z,276.00
2019-05-16T04:12:06.737Z,292.00
2019-05-16T04:13:06.777Z,312.00
2019-05-16T04:14:06.684Z,428.00
2019-05-16T04:15:06.677Z,452.00
2019-05-16T04:16:06.662Z,440.00
2019-05-16T04:17:06.657Z,484.00
2019-05-16T04:18:06.646Z,436.00
2019-05-16T04:19:06.657Z,492.00
2019-05-16T04:20:06.623Z,372.00
2019-05-16T04:21:06.620Z,504.00
2019-05-16T04:22:06.677Z,400.00
2019-05-16T04:23:06.585Z,416.00
2019-05-16T04:24:06.580Z,388.00
2019-05-16T04:25:06.604Z,352.00
2019-05-16T04:26:06.552Z,312.00
2019-05-16T04:27:06.559Z,316.00
2019-05-16T04:28:06.529Z,352.00
2019-05-16T04:29:06.620Z,456.00
2019-05-16T04:30:06.588Z,512.00
2019-05-16T04:31:06.495Z,576.00
2019-05-16T04:32:06.494Z,608.00
2019-05-16T04:33:06.477Z,464.00
2019-05-16T04:34:06.574Z,396.00
2019-05-16T04:35:06.451Z,256.00
2019-05-16T04:36:06.443Z,192.00
2019-05-16T04:37:06.433Z,184.00
2019-05-16T04:38:06.428Z,216.00
2019-05-16T04:39:06.408Z,228.00
2019-05-16T04:40:06.480Z,228.00
2019-05-16T04:41:06.394Z,272.00
2019-05-16T04:42:06.383Z,240.00
2019-05-16T04:43:06.372Z,212.00
2019-05-16T04:44:06.359Z,204.00
2019-05-16T04:45:06.449Z,208.00
2019-05-16T04:46:06.330Z,216.00
2019-05-16T04:47:06.321Z,248.00
2019-05-16T04:48:06.313Z,208.00
2019-05-16T04:49:06.307Z,272.00
2019-05-16T04:50:06.292Z,256.00
2019-05-16T04:51:06.308Z,232.00
2019-05-16T04:52:06.265Z,224.00
2019-05-16T04:53:06.261Z,220.00
2019-05-16T04:54:07.070Z,240.00
2019-05-16T04:55:06.232Z,196.00
2019-05-16T04:56:06.221Z,212.00
2019-05-16T04:57:06.270Z,260.00
2019-05-16T04:58:06.203Z,244.00
2019-05-16T04:59:06.189Z,180.00
2019-05-16T05:00:06.186Z,200.00
2019-05-16T05:01:06.173Z,212.00
2019-05-16T05:02:06.161Z,248.00
2019-05-16T05:03:06.231Z,244.00
2019-05-16T05:04:11.783Z,244.00
2019-05-16T05:05:07.130Z,248.00
2019-05-16T05:06:06.112Z,280.00
2019-05-16T05:07:06.107Z,220.00
2019-05-16T05:08:06.139Z,216.00
2019-05-16T05:09:06.086Z,232.00
2019-05-16T05:10:06.075Z,264.00
2019-05-16T05:11:06.058Z,248.00
2019-05-16T05:12:06.110Z,236.00
2019-05-16T05:13:06.042Z,268.00
2019-05-16T05:14:06.026Z,356.00
2019-05-16T05:15:06.049Z,368.00
2019-05-16T05:16:06.002Z,332.00
2019-05-16T05:17:06.092Z,384.00
2019-05-16T05:18:06.089Z,392.00
2019-05-16T05:19:05.981Z,356.00
2019-05-16T05:20:05.960Z,340.00
2019-05-16T05:21:05.948Z,356.00
2019-05-16T05:22:05.941Z,336.00
2019-05-16T05:23:05.929Z,352.00
2019-05-16T05:24:06.023Z,384.00
2019-05-16T05:25:05.907Z,444.00
2019-05-16T05:26:05.890Z,512.00
2019-05-16T05:27:05.884Z,528.00
2019-05-16T05:28:05.869Z,548.00
2019-05-16T05:29:05.864Z,584.00
2019-05-16T05:30:05.876Z,668.00
2019-05-16T05:31:05.841Z,608.00
2019-05-16T05:32:05.837Z,572.00
2019-05-16T05:33:05.815Z,460.00
2019-05-16T05:34:05.887Z,428.00
2019-05-16T05:35:05.794Z,452.00
2019-05-16T05:36:05.848Z,452.00
2019-05-16T05:37:05.785Z,456.00
2019-05-16T05:38:05.792Z,468.00
2019-05-16T05:39:11.730Z,564.00
2019-05-16T05:40:06.739Z,488.00
2019-05-16T05:41:05.732Z,484.00
2019-05-16T05:42:05.717Z,504.00
2019-05-16T05:43:05.710Z,516.00
2019-05-16T05:44:05.717Z,544.00
2019-05-16T05:45:05.690Z,488.00
2019-05-16T05:46:05.696Z,536.00
2019-05-16T05:47:05.668Z,588.00
2019-05-16T05:48:05.653Z,532.00
2019-05-16T05:49:05.645Z,588.00
2019-05-16T05:50:05.633Z,600.00
2019-05-16T05:51:05.727Z,656.00
2019-05-16T05:52:05.614Z,644.00
2019-05-16T05:53:05.601Z,684.00
2019-05-16T05:54:05.590Z,676.00
2019-05-16T05:55:05.577Z,904.00
2019-05-16T05:56:05.566Z,892.00
2019-05-16T05:57:05.585Z,928.00
2019-05-16T05:58:05.543Z,800.00
2019-05-16T05:59:05.531Z,992.00
2019-05-16T06:00:05.525Z,1168.00
2019-05-16T06:01:05.519Z,1224.00
2019-05-16T06:02:05.542Z,1304.00
2019-05-16T06:03:05.493Z,1432.00
2019-05-16T06:04:05.483Z,1328.00
2019-05-16T06:05:05.467Z,1484.00
2019-05-16T06:06:05.454Z,1360.00
2019-05-16T06:07:05.525Z,1464.00
2019-05-16T06:08:05.432Z,1448.00
2019-05-16T06:09:05.425Z,1628.00
2019-05-16T06:10:05.411Z,1604.00
2019-05-16T06:11:05.404Z,1488.00
2019-05-16T06:12:07.515Z,1548.00
2019-05-16T06:13:05.415Z,1432.00
2019-05-16T06:14:05.367Z,1668.00
2019-05-16T06:15:08.926Z,1552.00
2019-05-16T06:16:05.352Z,1532.00
2019-05-16T06:17:05.348Z,1496.00
2019-05-16T06:18:05.350Z,1412.00
2019-05-16T06:19:05.312Z,1220.00
2019-05-16T06:20:05.319Z,1240.00
2019-05-16T06:21:05.296Z,1140.00
2019-05-16T06:22:05.286Z,1048.00
2019-05-16T06:23:05.291Z,1096.00
2019-05-16T06:24:05.256Z,1164.00
2019-05-16T06:25:05.258Z,1128.00
2019-05-16T06:26:05.242Z,1260.00
2019-05-16T06:27:05.226Z,1324.00
2019-05-16T06:28:05.252Z,1340.00
2019-05-16T06:29:05.208Z,1228.00
2019-05-16T06:30:05.198Z,1528.00
2019-05-16T06:31:05.184Z,1564.00
2019-05-16T06:32:05.169Z,1536.00
2019-05-16T06:33:05.157Z,1940.00
2019-05-16T06:34:07.927Z,1712.00
2019-05-16T06:35:06.135Z,1480.00
2019-05-16T06:36:05.125Z,1620.00
2019-05-16T06:37:05.115Z,1660.00
2019-05-16T06:38:05.111Z,1584.00
2019-05-16T06:39:05.119Z,1480.00
2019-05-16T06:40:05.083Z,1560.00
2019-05-16T06:41:05.076Z,1660.00
2019-05-16T06:42:05.063Z,1780.00
2019-05-16T06:43:05.066Z,1496.00
2019-05-16T06:44:05.190Z,1576.00
2019-05-16T06:45:05.132Z,1400.00
2019-05-16T06:46:05.021Z,1344.00
2019-05-16T06:47:16.929Z,1364.00
2019-05-16T06:48:05.999Z,1496.00
2019-05-16T06:49:04.981Z,1700.00
2019-05-16T06:50:04.994Z,1320.00
2019-05-16T06:51:04.982Z,1496.00
2019-05-16T06:52:05.031Z,1580.00
2019-05-16T06:53:04.944Z,1504.00
2019-05-16T06:54:04.934Z,1528.00
2019-05-16T06:55:04.923Z,1404.00
2019-05-16T06:56:04.987Z,1288.00
2019-05-16T06:57:04.903Z,1260.00
2019-05-16T06:58:04.892Z,1204.00
2019-05-16T06:59:04.878Z,1256.00
2019-05-16T07:00:04.865Z,1272.00
2019-05-16T07:01:04.958Z,1216.00
2019-05-16T07:02:04.839Z,1348.00
2019-05-16T07:03:04.829Z,1124.00
2019-05-16T07:04:05.183Z,1536.00
2019-05-16T07:05:04.814Z,1288.00
2019-05-16T07:06:04.800Z,1548.00
2019-05-16T07:07:04.866Z,1252.00
2019-05-16T07:08:04.777Z,1120.00
2019-05-16T07:09:04.763Z,1272.00
2019-05-16T07:10:04.842Z,1220.00
2019-05-16T07:11:04.740Z,1140.00
2019-05-16T07:12:04.734Z,1168.00
2019-05-16T07:13:04.773Z,1128.00
2019-05-16T07:14:04.726Z,1440.00
2019-05-16T07:15:04.728Z,1528.00
2019-05-16T07:16:04.690Z,1412.00
2019-05-16T07:17:04.739Z,1688.00
2019-05-16T07:18:04.700Z,1596.00
2019-05-16T07:19:04.657Z,1716.00
2019-05-16T07:20:04.655Z,1724.00
2019-05-16T07:21:04.632Z,1708.00
2019-05-16T07:22:04.625Z,1636.00
2019-05-16T07:23:04.694Z,1964.00
2019-05-16T07:24:05.468Z,1828.00
2019-05-16T07:25:04.589Z,2084.00
2019-05-16T07:26:04.575Z,1744.00
2019-05-16T07:27:04.591Z,1684.00
2019-05-16T07:28:04.636Z,1616.00
2019-05-16T07:29:04.548Z,1732.00
2019-05-16T07:30:04.534Z,1540.00
2019-05-16T07:31:14.856Z,1868.00
2019-05-16T07:32:05.513Z,1996.00
2019-05-16T07:33:04.556Z,1740.00
2019-05-16T07:34:04.487Z,2120.00
2019-05-16T07:35:04.478Z,2372.00
2019-05-16T07:36:04.468Z,2140.00
2019-05-16T07:37:04.457Z,1744.00
2019-05-16T07:38:04.451Z,1692.00
2019-05-16T07:39:04.528Z,1892.00
2019-05-16T07:40:16.208Z,1864.00
2019-05-16T07:41:05.412Z,1456.00
2019-05-16T07:42:04.399Z,1540.00
2019-05-16T07:43:04.394Z,1272.00
2019-05-16T07:44:04.390Z,1208.00
2019-05-16T07:45:04.422Z,1244.00
2019-05-16T07:46:04.358Z,1140.00
2019-05-16T07:47:04.350Z,1192.00
2019-05-16T07:48:04.333Z,1336.00
2019-05-16T07:49:04.323Z,1076.00
2019-05-16T07:50:04.397Z,1304.00
2019-05-16T07:51:04.300Z,1340.00
2019-05-16T07:52:04.373Z,1264.00
2019-05-16T07:53:04.279Z,1440.00
2019-05-16T07:54:04.274Z,1388.00
2019-05-16T07:55:04.280Z,1624.00
2019-05-16T07:56:04.246Z,1488.00
2019-05-16T07:57:18.627Z,1532.00
2019-05-16T07:58:05.406Z,1576.00
2019-05-16T07:59:04.212Z,1620.00
2019-05-16T08:00:04.201Z,1764.00
2019-05-16T08:01:08.069Z,1648.00
2019-05-16T08:02:05.260Z,1544.00
2019-05-16T08:03:04.174Z,1636.00
2019-05-16T08:04:04.158Z,1776.00
2019-05-16T08:05:04.147Z,1520.00
2019-05-16T08:06:04.177Z,1492.00
2019-05-16T08:07:05.845Z,1312.00
2019-05-16T08:08:04.114Z,1332.00
2019-05-16T08:09:07.521Z,1224.00
2019-05-16T08:10:04.090Z,1168.00
2019-05-16T08:11:04.163Z,1120.00
2019-05-16T08:12:05.888Z,1176.00
2019-05-16T08:13:04.059Z,1248.00
2019-05-16T08:14:04.048Z,1128.00
2019-05-16T08:15:04.040Z,1236.00
2019-05-16T08:16:04.090Z,1412.00
2019-05-16T08:17:04.097Z,1504.00
2019-05-16T08:18:04.004Z,1544.00
2019-05-16T08:19:03.991Z,1252.00
2019-05-16T08:20:03.986Z,1308.00
2019-05-16T08:21:04.066Z,1232.00
2019-05-16T08:22:03.963Z,1308.00
2019-05-16T08:23:04.060Z,1360.00
2019-05-16T08:24:07.504Z,1644.00
2019-05-16T08:25:03.929Z,1876.00
2019-05-16T08:26:03.916Z,1296.00
2019-05-16T08:27:03.987Z,1376.00
2019-05-16T08:28:03.892Z,1172.00
2019-05-16T08:29:03.887Z,1252.00
2019-05-16T08:30:03.887Z,1344.00
2019-05-16T08:31:03.864Z,1416.00
2019-05-16T08:32:03.878Z,1272.00
2019-05-16T08:33:03.923Z,1564.00
2019-05-16T08:34:03.833Z,1428.00
2019-05-16T08:35:03.815Z,1496.00
2019-05-16T08:36:08.118Z,1748.00
2019-05-16T08:37:04.799Z,1760.00
2019-05-16T08:38:03.785Z,1480.00
2019-05-16T08:39:03.808Z,1408.00
2019-05-16T08:40:03.768Z,1436.00
2019-05-16T08:41:12.409Z,1304.00
2019-05-16T08:43:04.723Z,1448.00
2019-05-16T08:44:03.724Z,1724.00
2019-05-16T08:45:03.790Z,1760.00
2019-05-16T08:46:03.702Z,1564.00
2019-05-16T08:47:06.193Z,1496.00
2019-05-16T08:48:03.671Z,1376.00
2019-05-16T08:49:03.773Z,1304.00
2019-05-16T08:50:03.652Z,1516.00
2019-05-16T08:51:03.646Z,1516.00
2019-05-16T08:52:03.720Z,1128.00
2019-05-16T08:53:03.623Z,1768.00
2019-05-16T08:54:03.688Z,1356.00
2019-05-16T08:55:03.781Z,1456.00
2019-05-16T08:56:03.595Z,1256.00
2019-05-16T08:57:24.392Z,1524.00
2019-05-16T08:58:04.567Z,1928.00
2019-05-16T08:59:04.370Z,1628.00
2019-05-16T09:00:03.569Z,1236.00
2019-05-16T09:01:03.530Z,1388.00
2019-05-16T09:02:03.685Z,1280.00
2019-05-16T09:03:03.569Z,1920.00
2019-05-16T09:04:03.507Z,1920.00
2019-05-16T09:05:05.495Z,1876.00
2019-05-16T09:06:03.591Z,1568.00
2019-05-16T09:07:03.469Z,1392.00
2019-05-16T09:08:03.451Z,1676.00
2019-05-16T09:09:12.177Z,1732.00
2019-05-16T09:10:10.248Z,1704.00
2019-05-16T09:10:34.935Z,1428.00
2019-05-16T09:11:26.571Z,1496.00
2019-05-16T09:12:04.407Z,1780.00
2019-05-16T09:13:03.400Z,1700.00
2019-05-16T09:14:03.412Z,1704.00
2019-05-16T09:15:03.378Z,2156.00
2019-05-16T09:16:03.402Z,2256.00
2019-05-16T09:17:03.377Z,2152.00
2019-05-16T09:18:03.343Z,1840.00
2019-05-16T09:19:03.334Z,1980.00
2019-05-16T09:20:03.401Z,1860.00
2019-05-16T09:21:03.314Z,1904.00
2019-05-16T09:22:03.309Z,1696.00
2019-05-16T09:23:03.292Z,1432.00
2019-05-16T09:24:03.275Z,1344.00
2019-05-16T09:25:03.348Z,1336.00
2019-05-16T09:26:03.341Z,1700.00
2019-05-16T09:27:03.268Z,1932.00
2019-05-16T09:28:03.275Z,1728.00
2019-05-16T09:29:03.230Z,1640.00
2019-05-16T09:30:03.213Z,1836.00
2019-05-16T09:31:03.289Z,2000.00
2019-05-16T09:32:12.750Z,1956.00
2019-05-16T09:33:06.882Z,1440.00
2019-05-16T09:34:03.169Z,1628.00
2019-05-16T09:35:03.160Z,1868.00
2019-05-16T09:36:03.149Z,1900.00
2019-05-16T09:37:03.233Z,1756.00
2019-05-16T09:38:03.120Z,1588.00
2019-05-16T09:39:03.109Z,1716.00
2019-05-16T09:40:03.105Z,1736.00
2019-05-16T09:41:03.179Z,1652.00
2019-05-16T09:42:03.106Z,1428.00
2019-05-16T09:43:03.084Z,1520.00
2019-05-16T09:44:03.083Z,1316.00
2019-05-16T09:45:03.045Z,1216.00
2019-05-16T09:46:04.195Z,1368.00
2019-05-16T09:47:03.054Z,1296.00
2019-05-16T09:48:03.014Z,1504.00
2019-05-16T09:49:16.633Z,2256.00
2019-05-16T09:50:03.994Z,2324.00
2019-05-16T09:51:02.977Z,2464.00
2019-05-16T09:52:03.050Z,1872.00
2019-05-16T09:53:02.960Z,1696.00
2019-05-16T09:54:03.069Z,2312.00
2019-05-16T09:55:03.023Z,2636.00
2019-05-16T09:56:02.962Z,2104.00
2019-05-16T09:57:02.937Z,1936.00
2019-05-16T09:58:02.909Z,1736.00
2019-05-16T09:59:02.892Z,1804.00
2019-05-16T10:00:02.879Z,1740.00
2019-05-16T10:01:02.870Z,1648.00
2019-05-16T10:02:02.958Z,1876.00
2019-05-16T10:03:03.657Z,2164.00
2019-05-16T10:04:02.840Z,1948.00
2019-05-16T10:05:02.861Z,1600.00
2019-05-16T10:06:02.836Z,1680.00
2019-05-16T10:07:02.845Z,1848.00
2019-05-16T10:08:02.793Z,2344.00
2019-05-16T10:09:02.786Z,2548.00
2019-05-16T10:10:02.773Z,2936.00
2019-05-16T10:11:02.768Z,2716.00
2019-05-16T10:12:14.124Z,2296.00
2019-05-16T10:14:12.597Z,2088.00
2019-05-16T10:15:12.510Z,1940.00
2019-05-16T10:16:12.505Z,2080.00
2019-05-16T10:17:12.515Z,2060.00
2019-05-16T10:18:12.472Z,2108.00
2019-05-16T10:19:12.465Z,1812.00
2019-05-16T10:20:12.546Z,1400.00
2019-05-16T10:21:12.444Z,1676.00
2019-05-16T10:22:12.427Z,2016.00
2019-05-16T10:23:14.812Z,1972.00
2019-05-16T10:24:12.409Z,2900.00
2019-05-16T10:25:12.395Z,3048.00
2019-05-16T10:26:12.386Z,2956.00
2019-05-16T10:27:12.371Z,3056.00
2019-05-16T10:28:12.360Z,2944.00
2019-05-16T10:29:12.430Z,2864.00
2019-05-16T10:30:12.349Z,2456.00
2019-05-16T10:31:12.333Z,3056.00
2019-05-16T10:32:12.316Z,2580.00
2019-05-16T10:33:12.307Z,3844.00
2019-05-16T10:34:12.374Z,4724.00
2019-05-16T10:35:12.289Z,5488.00
2019-05-16T10:36:12.272Z,4780.00
2019-05-16T10:37:12.264Z,3540.00
2019-05-16T10:38:12.257Z,3776.00
2019-05-16T10:39:12.331Z,3412.00
2019-05-16T10:40:12.232Z,3808.00
2019-05-16T10:41:12.221Z,4228.00
2019-05-16T10:42:25.094Z,3968.00
2019-05-16T10:43:13.275Z,4060.00
2019-05-16T10:44:12.281Z,4288.00
2019-05-16T10:45:12.172Z,4004.00
2019-05-16T10:46:12.160Z,4180.00
2019-05-16T10:47:12.155Z,4188.00
2019-05-16T10:48:12.143Z,4280.00
2019-05-16T10:49:12.154Z,4636.00
2019-05-16T10:50:12.150Z,4736.00
2019-05-16T10:51:12.116Z,5156.00
2019-05-16T10:52:12.177Z,5404.00
2019-05-16T10:53:28.426Z,4880.00
2019-05-16T10:54:14.193Z,4356.00
2019-05-16T10:55:12.145Z,3868.00
2019-05-16T10:56:12.096Z,4236.00
2019-05-16T10:57:12.113Z,4504.00
2019-05-16T10:58:12.039Z,4888.00
2019-05-16T10:59:51.122Z,4428.00
2019-05-16T11:00:26.526Z,4188.00
2019-05-16T11:01:24.222Z,4024.00
2019-05-16T11:02:13.029Z,3668.00
2019-05-16T11:03:11.995Z,4436.00
2019-05-16T11:04:24.212Z,4292.00
2019-05-16T11:05:24.900Z,3896.00
2019-05-16T11:06:24.675Z,3392.00
2019-05-16T11:07:12.968Z,3624.00
2019-05-16T11:08:11.953Z,3792.00
2019-05-16T11:09:11.990Z,3748.00
2019-05-16T11:10:11.902Z,3920.00
2019-05-16T11:11:11.886Z,3524.00
2019-05-16T11:12:11.881Z,3064.00
2019-05-16T11:13:11.869Z,2888.00
2019-05-16T11:14:11.933Z,3244.00
2019-05-16T11:15:11.975Z,3208.00
2019-05-16T11:16:11.912Z,3596.00
2019-05-16T11:17:13.474Z,3240.00
2019-05-16T11:18:11.815Z,3108.00
2019-05-16T11:19:17.864Z,2812.00
2019-05-16T11:20:12.898Z,2832.00
2019-05-16T11:21:11.784Z,2712.00
2019-05-16T11:22:11.765Z,3292.00
2019-05-16T11:23:11.837Z,2824.00
2019-05-16T11:24:13.323Z,2616.00
2019-05-16T11:25:24.171Z,3372.00
2019-05-16T11:26:12.721Z,3004.00
2019-05-16T11:27:11.714Z,2756.00
2019-05-16T11:28:11.706Z,3392.00
2019-05-16T11:29:11.687Z,2760.00
2019-05-16T11:30:11.716Z,2772.00
2019-05-16T11:31:11.700Z,2776.00
2019-05-16T11:32:11.655Z,2896.00
2019-05-16T11:33:11.648Z,3252.00
2019-05-16T11:34:11.664Z,3152.00
2019-05-16T11:35:11.624Z,2808.00
2019-05-16T11:36:12.966Z,2572.00
2019-05-16T11:37:11.606Z,2892.00
2019-05-16T11:38:11.594Z,2660.00
2019-05-16T11:39:11.579Z,2468.00
2019-05-16T11:40:11.566Z,2572.00
2019-05-16T11:41:11.598Z,2536.00
2019-05-16T11:42:11.609Z,3392.00
2019-05-16T11:43:18.266Z,3228.00
2019-05-16T11:44:12.537Z,3212.00
2019-05-16T11:45:11.518Z,2796.00
2019-05-16T11:46:11.544Z,3012.00
2019-05-16T11:47:11.563Z,2868.00
2019-05-16T11:48:11.487Z,2404.00
2019-05-16T11:49:11.475Z,2600.00
2019-05-16T11:50:11.457Z,3028.00
2019-05-16T11:51:11.451Z,2980.00
2019-05-16T11:52:11.528Z,3080.00
2019-05-16T11:53:11.507Z,3056.00
2019-05-16T11:54:11.413Z,3060.00
2019-05-16T11:55:11.510Z,3660.00
2019-05-16T11:56:11.392Z,3688.00
2019-05-16T11:57:11.403Z,3748.00
2019-05-16T11:58:11.486Z,4240.00
2019-05-16T11:59:11.365Z,3688.00
2019-05-16T12:00:11.348Z,4456.00
2019-05-16T12:01:11.335Z,5464.00
2019-05-16T12:02:11.323Z,5192.00
2019-05-16T12:03:11.395Z,4836.00
2019-05-16T12:04:11.307Z,5308.00
2019-05-16T12:05:11.404Z,4948.00
2019-05-16T12:06:11.409Z,4316.00
2019-05-16T12:07:11.269Z,4612.00
2019-05-16T12:08:11.265Z,4736.00
2019-05-16T12:09:11.346Z,3772.00
2019-05-16T12:10:11.346Z,4256.00
2019-05-16T12:11:11.223Z,4160.00
2019-05-16T12:12:11.219Z,3780.00
2019-05-16T12:13:24.156Z,2872.00
2019-05-16T12:14:12.207Z,2596.00
2019-05-16T12:15:11.242Z,2716.00
2019-05-16T12:16:11.276Z,2376.00
2019-05-16T12:17:11.174Z,2360.00
2019-05-16T12:18:11.163Z,2896.00
2019-05-16T12:19:11.175Z,3144.00
2019-05-16T12:20:11.150Z,3008.00
2019-05-16T12:21:11.117Z,2552.00
2019-05-16T12:22:11.099Z,2544.00
2019-05-16T12:23:11.105Z,2724.00
2019-05-16T12:24:11.078Z,3008.00
2019-05-16T12:25:11.148Z,3632.00
2019-05-16T12:26:11.068Z,3680.00
2019-05-16T12:27:11.044Z,4068.00
2019-05-16T12:28:11.036Z,3512.00
2019-05-16T12:29:11.035Z,2808.00